Terminal Aerodrome Forecast
Issued by NWS

Home | Current Version | Previous Version | Text Only | Print | Product List | Glossary On
Versions: 1 2 3 4 5 6 7 8 9 10 11 12 13 14 15 16 17
000
FTUS41 KBGM 041736
TAFELM
TAF
KELM 041736Z 0418/0518 VRB03KT P6SM BKN040
     FM050100 15005KT P6SM BKN150
     FM050500 15005KT 3SM -SN OVC030
     FM050700 16005KT 1SM -SN OVC015
     FM051000 17005KT P6SM -SN OVC025
     FM051700 25006KT P6SM BKN035=

USA.gov is the U.S. government's official web portal to all federal, state and local government web resources and services.